sensor_id;sensor_type;location;lat;lon;timestamp;temperature;humidity
15690;DHT22;7945;48.816;11.506;2023-10-31T00:02:20;13.00;99.90
15690;DHT22;7945;48.816;11.506;2023-10-31T00:04:47;13.00;99.90
15690;DHT22;7945;48.816;11.506;2023-10-31T00:07:15;13.00;99.90
15690;DHT22;7945;48.816;11.506;2023-10-31T00:09:41;13.00;99.90
15690;DHT22;7945;48.816;11.506;2023-10-31T00:12:08;13.00;99.90
15690;DHT22;7945;48.816;11.506;2023-10-31T00:14:35;12.90;99.90
15690;DHT22;7945;48.816;11.506;2023-10-31T00:17:01;12.90;99.90
15690;DHT22;7945;48.816;11.506;2023-10-31T00:19:28;12.90;99.90
15690;DHT22;7945;48.816;11.506;2023-10-31T00:21:54;12.90;99.90
15690;DHT22;7945;48.816;11.506;2023-10-31T00:24:22;12.90;99.90
15690;DHT22;7945;48.816;11.506;2023-10-31T00:26:49;12.80;99.90
15690;DHT22;7945;48.816;11.506;2023-10-31T00:29:15;12.80;99.90
15690;DHT22;7945;48.816;11.506;2023-10-31T00:31:42;12.80;99.90
15690;DHT22;7945;48.816;11.506;2023-10-31T00:34:09;12.80;99.90
15690;DHT22;7945;48.816;11.506;2023-10-31T00:36:35;12.80;99.90
15690;DHT22;7945;48.816;11.506;2023-10-31T00:39:02;12.70;99.90
15690;DHT22;7945;48.816;11.506;2023-10-31T00:41:30;12.70;99.90
15690;DHT22;7945;48.816;11.506;2023-10-31T00:43:57;14.90;99.90
15690;DHT22;7945;48.816;11.506;2023-10-31T00:46:24;12.70;99.90
15690;DHT22;7945;48.816;11.506;2023-10-31T00:48:50;12.70;99.90
15690;DHT22;7945;48.816;11.506;2023-10-31T00:51:17;12.70;99.90
15690;DHT22;7945;48.816;11.506;2023-10-31T00:53:43;15.70;99.90
15690;DHT22;7945;48.816;11.506;2023-10-31T00:56:10;13.10;99.90
15690;DHT22;7945;48.816;11.506;2023-10-31T00:58:38;12.60;99.90
15690;DHT22;7945;48.816;11.506;2023-10-31T01:01:05;12.60;99.90
15690;DHT22;7945;48.816;11.506;2023-10-31T01:03:31;12.60;99.90
15690;DHT22;7945;48.816;11.506;2023-10-31T01:05:58;12.60;99.90
15690;DHT22;7945;48.816;11.506;2023-10-31T01:08:24;12.60;99.90
15690;DHT22;7945;48.816;11.506;2023-10-31T01:10:51;12.60;99.90
15690;DHT22;7945;48.816;11.506;2023-10-31T01:13:18;12.60;99.90
15690;DHT22;7945;48.816;11.506;2023-10-31T01:15:46;12.60;99.90
15690;DHT22;7945;48.816;11.506;2023-10-31T01:18:13;12.50;99.90
15690;DHT22;7945;48.816;11.506;2023-10-31T01:20:39;12.60;99.90
15690;DHT22;7945;48.816;11.506;2023-10-31T01:23:06;12.60;99.90
15690;DHT22;7945;48.816;11.506;2023-10-31T01:25:33;12.50;99.90
15690;DHT22;7945;48.816;11.506;2023-10-31T01:27:59;12.50;99.90
15690;DHT22;7945;48.816;11.506;2023-10-31T01:30:26;12.50;99.90
15690;DHT22;7945;48.816;11.506;2023-10-31T01:32:54;12.50;99.90
15690;DHT22;7945;48.816;11.506;2023-10-31T01:35:20;12.50;99.90
15690;DHT22;7945;48.816;11.506;2023-10-31T01:37:47;12.50;99.90
15690;DHT22;7945;48.816;11.506;2023-10-31T01:40:13;12.50;99.90
15690;DHT22;7945;48.816;11.506;2023-10-31T01:42:40;13.60;99.90
15690;DHT22;7945;48.816;11.506;2023-10-31T01:45:07;12.40;99.90
15690;DHT22;7945;48.816;11.506;2023-10-31T01:47:34;12.40;99.90
15690;DHT22;7945;48.816;11.506;2023-10-31T01:50:02;12.40;99.90
15690;DHT22;7945;48.816;11.506;2023-10-31T01:52:29;12.40;99.90
15690;DHT22;7945;48.816;11.506;2023-10-31T01:54:58;12.40;99.90
15690;DHT22;7945;48.816;11.506;2023-10-31T01:57:25;12.40;99.90
15690;DHT22;7945;48.816;11.506;2023-10-31T01:59:51;12.40;99.90
15690;DHT22;7945;48.816;11.506;2023-10-31T02:02:18;13.10;99.90
15690;DHT22;7945;48.816;11.506;2023-10-31T02:04:46;12.40;99.90
15690;DHT22;7945;48.816;11.506;2023-10-31T02:07:14;12.30;99.90
15690;DHT22;7945;48.816;11.506;2023-10-31T02:09:40;12.30;99.90
15690;DHT22;7945;48.816;11.506;2023-10-31T02:12:07;12.30;99.90
15690;DHT22;7945;48.816;11.506;2023-10-31T02:14:34;12.30;99.90
15690;DHT22;7945;48.816;11.506;2023-10-31T02:17:00;12.30;99.90
15690;DHT22;7945;48.816;11.506;2023-10-31T02:19:27;12.30;99.90
15690;DHT22;7945;48.816;11.506;2023-10-31T02:21:55;12.30;99.90
15690;DHT22;7945;48.816;11.506;2023-10-31T02:24:21;12.30;99.90
15690;DHT22;7945;48.816;11.506;2023-10-31T02:26:48;12.20;99.90
15690;DHT22;7945;48.816;11.506;2023-10-31T02:29:15;12.20;99.90
15690;DHT22;7945;48.816;11.506;2023-10-31T02:31:41;12.20;99.90
15690;DHT22;7945;48.816;11.506;2023-10-31T02:34:08;12.20;99.90
15690;DHT22;7945;48.816;11.506;2023-10-31T02:36:34;12.20;99.90
15690;DHT22;7945;48.816;11.506;2023-10-31T02:39:02;12.20;99.90
15690;DHT22;7945;48.816;11.506;2023-10-31T02:41:29;12.20;99.90
15690;DHT22;7945;48.816;11.506;2023-10-31T02:43:56;12.20;99.90
15690;DHT22;7945;48.816;11.506;2023-10-31T02:46:23;12.20;99.90
15690;DHT22;7945;48.816;11.506;2023-10-31T02:48:50;12.20;99.90
15690;DHT22;7945;48.816;11.506;2023-10-31T02:51:16;12.20;99.90
15690;DHT22;7945;48.816;11.506;2023-10-31T02:53:43;12.20;99.90
15690;DHT22;7945;48.816;11.506;2023-10-31T02:56:11;12.10;99.90
15690;DHT22;7945;48.816;11.506;2023-10-31T02:58:37;12.20;99.90
15690;DHT22;7945;48.816;11.506;2023-10-31T03:01:04;12.20;99.90
15690;DHT22;7945;48.816;11.506;2023-10-31T03:03:30;12.20;99.90
15690;DHT22;7945;48.816;11.506;2023-10-31T03:05:57;12.20;99.90
15690;DHT22;7945;48.816;11.506;2023-10-31T03:08:24;12.10;99.90
15690;DHT22;7945;48.816;11.506;2023-10-31T03:10:50;12.10;99.90
15690;DHT22;7945;48.816;11.506;2023-10-31T03:13:19;12.10;99.90
15690;DHT22;7945;48.816;11.506;2023-10-31T03:15:45;12.10;99.90
15690;DHT22;7945;48.816;11.506;2023-10-31T03:18:12;12.10;99.90
15690;DHT22;7945;48.816;11.506;2023-10-31T03:20:40;12.10;99.90
15690;DHT22;7945;48.816;11.506;2023-10-31T03:23:06;12.00;99.90
15690;DHT22;7945;48.816;11.506;2023-10-31T03:25:33;12.00;99.90
15690;DHT22;7945;48.816;11.506;2023-10-31T03:27:59;12.00;99.90
15690;DHT22;7945;48.816;11.506;2023-10-31T03:30:27;12.00;99.90
15690;DHT22;7945;48.816;11.506;2023-10-31T03:32:54;12.00;99.90
15690;DHT22;7945;48.816;11.506;2023-10-31T03:35:20;12.00;99.90
15690;DHT22;7945;48.816;11.506;2023-10-31T03:37:47;12.00;99.90
15690;DHT22;7945;48.816;11.506;2023-10-31T03:40:14;12.00;99.90
15690;DHT22;7945;48.816;11.506;2023-10-31T03:42:40;12.00;99.90
15690;DHT22;7945;48.816;11.506;2023-10-31T03:45:07;12.00;99.90
15690;DHT22;7945;48.816;11.506;2023-10-31T03:47:35;11.90;99.90
15690;DHT22;7945;48.816;11.506;2023-10-31T03:50:02;12.00;99.90
15690;DHT22;7945;48.816;11.506;2023-10-31T03:52:28;12.00;99.90
15690;DHT22;7945;48.816;11.506;2023-10-31T03:54:55;12.00;99.90
15690;DHT22;7945;48.816;11.506;2023-10-31T03:57:21;11.90;99.90
15690;DHT22;7945;48.816;11.506;2023-10-31T03:59:48;11.90;99.90
15690;DHT22;7945;48.816;11.506;2023-10-31T04:02:15;11.80;99.90
15690;DHT22;7945;48.816;11.506;2023-10-31T04:04:43;11.90;99.90
15690;DHT22;7945;48.816;11.506;2023-10-31T04:07:09;11.90;99.90
15690;DHT22;7945;48.816;11.506;2023-10-31T04:09:36;11.90;99.90
15690;DHT22;7945;48.816;11.506;2023-10-31T04:12:03;12.00;99.90
15690;DHT22;7945;48.816;11.506;2023-10-31T04:14:30;12.00;99.90
15690;DHT22;7945;48.816;11.506;2023-10-31T04:16:56;12.00;99.90
15690;DHT22;7945;48.816;11.506;2023-10-31T04:19:23;12.00;99.90
15690;DHT22;7945;48.816;11.506;2023-10-31T04:21:52;12.00;99.90
15690;DHT22;7945;48.816;11.506;2023-10-31T04:24:19;11.90;99.90
15690;DHT22;7945;48.816;11.506;2023-10-31T04:26:45;11.90;99.90
15690;DHT22;7945;48.816;11.506;2023-10-31T04:29:12;11.90;99.90
15690;DHT22;7945;48.816;11.506;2023-10-31T04:31:39;11.90;99.90
15690;DHT22;7945;48.816;11.506;2023-10-31T04:34:05;11.90;99.90
15690;DHT22;7945;48.816;11.506;2023-10-31T04:36:32;11.90;99.90
15690;DHT22;7945;48.816;11.506;2023-10-31T04:39:00;11.90;99.90
15690;DHT22;7945;48.816;11.506;2023-10-31T04:41:26;11.80;99.90
15690;DHT22;7945;48.816;11.506;2023-10-31T04:43:53;11.80;99.90
15690;DHT22;7945;48.816;11.506;2023-10-31T04:46:20;11.80;99.90
15690;DHT22;7945;48.816;11.506;2023-10-31T04:48:47;11.80;99.90
15690;DHT22;7945;48.816;11.506;2023-10-31T04:51:14;11.70;99.90
15690;DHT22;7945;48.816;11.506;2023-10-31T04:53:41;11.70;99.90
15690;DHT22;7945;48.816;11.506;2023-10-31T04:56:12;11.70;99.90
15690;DHT22;7945;48.816;11.506;2023-10-31T04:58:40;11.70;99.90
15690;DHT22;7945;48.816;11.506;2023-10-31T05:01:08;11.70;99.90
15690;DHT22;7945;48.816;11.506;2023-10-31T05:03:34;11.70;99.90
15690;DHT22;7945;48.816;11.506;2023-10-31T05:06:01;11.70;99.90
15690;DHT22;7945;48.816;11.506;2023-10-31T05:08:28;11.60;99.90
15690;DHT22;7945;48.816;11.506;2023-10-31T05:10:55;11.60;99.90
15690;DHT22;7945;48.816;11.506;2023-10-31T05:13:23;11.60;99.90
15690;DHT22;7945;48.816;11.506;2023-10-31T05:15:50;11.60;99.90
15690;DHT22;7945;48.816;11.506;2023-10-31T05:18:16;11.60;99.90
15690;DHT22;7945;48.816;11.506;2023-10-31T05:20:43;11.60;99.90
15690;DHT22;7945;48.816;11.506;2023-10-31T05:23:09;11.50;99.90
15690;DHT22;7945;48.816;11.506;2023-10-31T05:25:37;11.60;99.90
15690;DHT22;7945;48.816;11.506;2023-10-31T05:28:04;11.60;99.90
15690;DHT22;7945;48.816;11.506;2023-10-31T05:30:32;11.50;99.90
15690;DHT22;7945;48.816;11.506;2023-10-31T05:32:58;11.50;99.90
15690;DHT22;7945;48.816;11.506;2023-10-31T05:35:25;11.50;99.90
15690;DHT22;7945;48.816;11.506;2023-10-31T05:37:51;11.60;99.90
15690;DHT22;7945;48.816;11.506;2023-10-31T05:40:18;11.60;99.90
15690;DHT22;7945;48.816;11.506;2023-10-31T05:42:47;11.60;99.90
15690;DHT22;7945;48.816;11.506;2023-10-31T05:45:14;11.60;99.90
15690;DHT22;7945;48.816;11.506;2023-10-31T05:47:42;11.60;99.90
15690;DHT22;7945;48.816;11.506;2023-10-31T05:50:08;11.60;99.90
15690;DHT22;7945;48.816;11.506;2023-10-31T05:52:35;11.60;99.90
15690;DHT22;7945;48.816;11.506;2023-10-31T05:55:02;11.70;99.90
15690;DHT22;7945;48.816;11.506;2023-10-31T05:57:29;11.70;99.90
15690;DHT22;7945;48.816;11.506;2023-10-31T05:59:56;11.70;99.90
15690;DHT22;7945;48.816;11.506;2023-10-31T06:02:22;11.70;99.90
15690;DHT22;7945;48.816;11.506;2023-10-31T06:04:50;11.70;99.90
15690;DHT22;7945;48.816;11.506;2023-10-31T06:07:17;11.70;99.90
15690;DHT22;7945;48.816;11.506;2023-10-31T06:09:43;11.70;99.90
15690;DHT22;7945;48.816;11.506;2023-10-31T06:12:10;11.60;99.90
15690;DHT22;7945;48.816;11.506;2023-10-31T06:15:51;11.50;99.90
15690;DHT22;7945;48.816;11.506;2023-10-31T06:18:17;11.60;99.90
15690;DHT22;7945;48.816;11.506;2023-10-31T06:20:44;11.50;99.90
15690;DHT22;7945;48.816;11.506;2023-10-31T06:23:10;11.50;99.90
15690;DHT22;7945;48.816;11.506;2023-10-31T06:25:37;11.50;99.90
15690;DHT22;7945;48.816;11.506;2023-10-31T06:28:04;11.50;99.90
15690;DHT22;7945;48.816;11.506;2023-10-31T06:30:30;11.50;99.90
15690;DHT22;7945;48.816;11.506;2023-10-31T06:32:58;11.60;99.90
15690;DHT22;7945;48.816;11.506;2023-10-31T06:35:25;11.60;99.90
15690;DHT22;7945;48.816;11.506;2023-10-31T06:37:53;11.60;99.90
15690;DHT22;7945;48.816;11.506;2023-10-31T06:40:20;11.70;99.90
15690;DHT22;7945;48.816;11.506;2023-10-31T06:42:47;11.70;99.90
15690;DHT22;7945;48.816;11.506;2023-10-31T06:45:13;11.70;99.90
15690;DHT22;7945;48.816;11.506;2023-10-31T06:47:40;11.80;99.90
15690;DHT22;7945;48.816;11.506;2023-10-31T06:50:09;11.80;99.90
15690;DHT22;7945;48.816;11.506;2023-10-31T06:52:35;11.80;99.90
15690;DHT22;7945;48.816;11.506;2023-10-31T06:55:01;11.80;99.90
15690;DHT22;7945;48.816;11.506;2023-10-31T06:57:27;11.70;99.90
15690;DHT22;7945;48.816;11.506;2023-10-31T06:59:54;11.70;99.90
15690;DHT22;7945;48.816;11.506;2023-10-31T07:02:21;11.70;99.90
15690;DHT22;7945;48.816;11.506;2023-10-31T07:04:47;11.70;99.90
15690;DHT22;7945;48.816;11.506;2023-10-31T07:07:16;11.70;99.90
15690;DHT22;7945;48.816;11.506;2023-10-31T07:09:42;11.80;99.90
15690;DHT22;7945;48.816;11.506;2023-10-31T07:12:09;11.80;99.90
15690;DHT22;7945;48.816;11.506;2023-10-31T07:14:36;11.80;99.90
15690;DHT22;7945;48.816;11.506;2023-10-31T07:17:03;11.80;99.90
15690;DHT22;7945;48.816;11.506;2023-10-31T07:19:30;11.80;99.90
15690;DHT22;7945;48.816;11.506;2023-10-31T07:21:56;11.80;99.90
15690;DHT22;7945;48.816;11.506;2023-10-31T07:24:24;11.80;99.90
15690;DHT22;7945;48.816;11.506;2023-10-31T07:26:52;11.80;99.90
15690;DHT22;7945;48.816;11.506;2023-10-31T07:29:18;11.70;99.90
15690;DHT22;7945;48.816;11.506;2023-10-31T07:31:45;11.70;99.90
15690;DHT22;7945;48.816;11.506;2023-10-31T07:34:11;11.70;99.90
15690;DHT22;7945;48.816;11.506;2023-10-31T07:36:38;11.70;99.90
15690;DHT22;7945;48.816;11.506;2023-10-31T07:39:06;11.60;99.90
15690;DHT22;7945;48.816;11.506;2023-10-31T07:41:34;11.70;99.90
15690;DHT22;7945;48.816;11.506;2023-10-31T07:44:01;11.70;99.90
15690;DHT22;7945;48.816;11.506;2023-10-31T07:46:27;11.70;99.90
15690;DHT22;7945;48.816;11.506;2023-10-31T07:48:54;11.70;99.90
15690;DHT22;7945;48.816;11.506;2023-10-31T07:51:21;11.80;99.90
15690;DHT22;7945;48.816;11.506;2023-10-31T07:53:47;11.80;99.90
15690;DHT22;7945;48.816;11.506;2023-10-31T07:56:14;11.70;99.90
15690;DHT22;7945;48.816;11.506;2023-10-31T07:58:42;11.70;99.90
15690;DHT22;7945;48.816;11.506;2023-10-31T08:01:09;11.70;99.90
15690;DHT22;7945;48.816;11.506;2023-10-31T08:03:36;11.70;99.90
15690;DHT22;7945;48.816;11.506;2023-10-31T08:06:03;11.80;99.90
15690;DHT22;7945;48.816;11.506;2023-10-31T08:08:30;11.80;99.90
15690;DHT22;7945;48.816;11.506;2023-10-31T08:10:57;11.80;99.90
15690;DHT22;7945;48.816;11.506;2023-10-31T08:13:24;11.80;99.90
15690;DHT22;7945;48.816;11.506;2023-10-31T08:15:52;11.80;99.90
15690;DHT22;7945;48.816;11.506;2023-10-31T08:18:19;12.00;99.90
15690;DHT22;7945;48.816;11.506;2023-10-31T08:20:45;12.00;99.90
15690;DHT22;7945;48.816;11.506;2023-10-31T08:23:15;12.00;99.90
15690;DHT22;7945;48.816;11.506;2023-10-31T08:25:42;11.90;99.90
15690;DHT22;7945;48.816;11.506;2023-10-31T08:28:08;11.90;99.90
15690;DHT22;7945;48.816;11.506;2023-10-31T08:30:36;12.00;99.90
15690;DHT22;7945;48.816;11.506;2023-10-31T08:33:04;12.00;99.90
15690;DHT22;7945;48.816;11.506;2023-10-31T08:35:31;11.90;99.90
15690;DHT22;7945;48.816;11.506;2023-10-31T08:37:58;11.90;99.90
15690;DHT22;7945;48.816;11.506;2023-10-31T08:40:25;11.90;99.90
15690;DHT22;7945;48.816;11.506;2023-10-31T08:42:52;11.90;99.90
15690;DHT22;7945;48.816;11.506;2023-10-31T08:45:20;11.90;99.90
15690;DHT22;7945;48.816;11.506;2023-10-31T08:47:47;11.90;99.90
15690;DHT22;7945;48.816;11.506;2023-10-31T08:50:15;12.00;99.90
15690;DHT22;7945;48.816;11.506;2023-10-31T08:52:41;12.00;99.90
15690;DHT22;7945;48.816;11.506;2023-10-31T08:55:08;12.10;99.90
15690;DHT22;7945;48.816;11.506;2023-10-31T08:57:35;12.20;99.90
15690;DHT22;7945;48.816;11.506;2023-10-31T09:00:02;12.30;99.90
15690;DHT22;7945;48.816;11.506;2023-10-31T09:02:30;12.40;99.90
15690;DHT22;7945;48.816;11.506;2023-10-31T09:04:56;12.50;99.90
15690;DHT22;7945;48.816;11.506;2023-10-31T09:07:24;12.50;99.90
15690;DHT22;7945;48.816;11.506;2023-10-31T09:09:52;12.50;99.90
15690;DHT22;7945;48.816;11.506;2023-10-31T09:12:18;12.50;99.90
15690;DHT22;7945;48.816;11.506;2023-10-31T09:14:45;12.40;99.90
15690;DHT22;7945;48.816;11.506;2023-10-31T09:17:12;12.40;99.90
15690;DHT22;7945;48.816;11.506;2023-10-31T09:19:38;12.30;99.90
15690;DHT22;7945;48.816;11.506;2023-10-31T09:22:05;12.30;99.90
15690;DHT22;7945;48.816;11.506;2023-10-31T09:24:33;12.30;99.90
15690;DHT22;7945;48.816;11.506;2023-10-31T09:26:59;12.30;99.90
15690;DHT22;7945;48.816;11.506;2023-10-31T09:29:26;12.20;99.90
15690;DHT22;7945;48.816;11.506;2023-10-31T09:31:53;12.20;99.90
15690;DHT22;7945;48.816;11.506;2023-10-31T09:34:20;12.20;99.90
15690;DHT22;7945;48.816;11.506;2023-10-31T09:36:47;12.20;99.90
15690;DHT22;7945;48.816;11.506;2023-10-31T09:39:13;12.10;99.90
15690;DHT22;7945;48.816;11.506;2023-10-31T09:41:42;12.10;99.90
15690;DHT22;7945;48.816;11.506;2023-10-31T09:44:08;12.20;99.90
15690;DHT22;7945;48.816;11.506;2023-10-31T09:46:35;12.30;99.90
15690;DHT22;7945;48.816;11.506;2023-10-31T09:49:02;12.30;99.90
15690;DHT22;7945;48.816;11.506;2023-10-31T09:51:29;12.20;99.90
15690;DHT22;7945;48.816;11.506;2023-10-31T09:53:55;12.20;99.90
15690;DHT22;7945;48.816;11.506;2023-10-31T09:56:23;12.20;99.90
15690;DHT22;7945;48.816;11.506;2023-10-31T09:58:53;12.20;99.90
15690;DHT22;7945;48.816;11.506;2023-10-31T10:01:21;12.20;99.90
15690;DHT22;7945;48.816;11.506;2023-10-31T10:03:47;12.20;99.90
15690;DHT22;7945;48.816;11.506;2023-10-31T10:06:14;12.20;99.90
15690;DHT22;7945;48.816;11.506;2023-10-31T10:08:41;12.20;99.90
15690;DHT22;7945;48.816;11.506;2023-10-31T10:11:07;12.20;99.90
15690;DHT22;7945;48.816;11.506;2023-10-31T10:13:34;12.20;99.90
15690;DHT22;7945;48.816;11.506;2023-10-31T10:16:03;12.20;99.90
15690;DHT22;7945;48.816;11.506;2023-10-31T10:18:30;12.20;99.90
15690;DHT22;7945;48.816;11.506;2023-10-31T10:20:58;12.10;99.90
15690;DHT22;7945;48.816;11.506;2023-10-31T10:23:25;12.10;99.90
15690;DHT22;7945;48.816;11.506;2023-10-31T10:25:52;12.10;99.90
15690;DHT22;7945;48.816;11.506;2023-10-31T10:28:20;12.10;99.90
15690;DHT22;7945;48.816;11.506;2023-10-31T10:30:47;12.10;99.90
15690;DHT22;7945;48.816;11.506;2023-10-31T10:33:15;12.10;99.90
15690;DHT22;7945;48.816;11.506;2023-10-31T10:35:42;12.10;99.90
15690;DHT22;7945;48.816;11.506;2023-10-31T10:38:10;12.10;99.90
15690;DHT22;7945;48.816;11.506;2023-10-31T10:40:37;12.10;99.90
15690;DHT22;7945;48.816;11.506;2023-10-31T10:43:06;12.10;99.90
15690;DHT22;7945;48.816;11.506;2023-10-31T10:45:36;12.10;99.90
15690;DHT22;7945;48.816;11.506;2023-10-31T10:48:05;12.10;99.90
15690;DHT22;7945;48.816;11.506;2023-10-31T10:50:34;12.20;99.90
15690;DHT22;7945;48.816;11.506;2023-10-31T10:53:03;12.20;99.90
15690;DHT22;7945;48.816;11.506;2023-10-31T10:55:34;12.20;99.90
15690;DHT22;7945;48.816;11.506;2023-10-31T10:58:05;12.30;99.90
15690;DHT22;7945;48.816;11.506;2023-10-31T11:00:32;12.30;99.90
15690;DHT22;7945;48.816;11.506;2023-10-31T11:02:59;12.30;99.90
15690;DHT22;7945;48.816;11.506;2023-10-31T11:05:27;12.30;99.90
15690;DHT22;7945;48.816;11.506;2023-10-31T11:07:55;12.40;99.90
15690;DHT22;7945;48.816;11.506;2023-10-31T11:10:24;12.40;99.90
15690;DHT22;7945;48.816;11.506;2023-10-31T11:12:50;12.40;99.90
15690;DHT22;7945;48.816;11.506;2023-10-31T11:15:18;12.40;99.90
15690;DHT22;7945;48.816;11.506;2023-10-31T11:17:46;12.40;99.90
15690;DHT22;7945;48.816;11.506;2023-10-31T11:20:14;12.40;99.90
15690;DHT22;7945;48.816;11.506;2023-10-31T11:22:41;12.40;99.90
15690;DHT22;7945;48.816;11.506;2023-10-31T11:25:12;12.40;99.90
15690;DHT22;7945;48.816;11.506;2023-10-31T11:27:39;12.50;99.90
15690;DHT22;7945;48.816;11.506;2023-10-31T11:30:07;12.50;99.90
15690;DHT22;7945;48.816;11.506;2023-10-31T11:32:34;12.50;99.90
15690;DHT22;7945;48.816;11.506;2023-10-31T11:35:01;12.50;99.90
15690;DHT22;7945;48.816;11.506;2023-10-31T11:37:31;12.40;99.90
15690;DHT22;7945;48.816;11.506;2023-10-31T11:40:16;12.40;99.90
15690;DHT22;7945;48.816;11.506;2023-10-31T11:42:43;12.40;99.90
15690;DHT22;7945;48.816;11.506;2023-10-31T11:45:10;12.40;99.90
15690;DHT22;7945;48.816;11.506;2023-10-31T11:47:45;12.40;99.90
15690;DHT22;7945;48.816;11.506;2023-10-31T11:50:12;12.40;99.90
15690;DHT22;7945;48.816;11.506;2023-10-31T11:52:39;12.50;99.90
15690;DHT22;7945;48.816;11.506;2023-10-31T11:55:07;12.40;99.90
15690;DHT22;7945;48.816;11.506;2023-10-31T11:57:36;12.60;99.90
15690;DHT22;7945;48.816;11.506;2023-10-31T12:00:03;12.60;99.90
15690;DHT22;7945;48.816;11.506;2023-10-31T12:02:30;12.60;99.90
15690;DHT22;7945;48.816;11.506;2023-10-31T12:05:06;12.70;99.90
15690;DHT22;7945;48.816;11.506;2023-10-31T12:07:40;12.70;99.90
15690;DHT22;7945;48.816;11.506;2023-10-31T12:10:07;12.80;99.90
15690;DHT22;7945;48.816;11.506;2023-10-31T12:12:34;12.90;99.90
15690;DHT22;7945;48.816;11.506;2023-10-31T12:15:05;12.80;99.90
15690;DHT22;7945;48.816;11.506;2023-10-31T12:17:33;12.80;99.90
15690;DHT22;7945;48.816;11.506;2023-10-31T12:20:02;12.90;99.90
15690;DHT22;7945;48.816;11.506;2023-10-31T12:22:29;12.80;99.90
15690;DHT22;7945;48.816;11.506;2023-10-31T12:24:59;12.90;99.90
15690;DHT22;7945;48.816;11.506;2023-10-31T12:27:39;12.90;99.90
15690;DHT22;7945;48.816;11.506;2023-10-31T12:30:09;13.00;99.90
15690;DHT22;7945;48.816;11.506;2023-10-31T12:32:36;13.00;99.90
15690;DHT22;7945;48.816;11.506;2023-10-31T12:35:03;13.00;99.90
15690;DHT22;7945;48.816;11.506;2023-10-31T12:37:30;13.00;99.90
15690;DHT22;7945;48.816;11.506;2023-10-31T12:39:56;13.00;99.90
15690;DHT22;7945;48.816;11.506;2023-10-31T12:42:23;13.00;99.90
15690;DHT22;7945;48.816;11.506;2023-10-31T12:44:54;13.00;99.90
15690;DHT22;7945;48.816;11.506;2023-10-31T12:47:23;13.00;99.90
15690;DHT22;7945;48.816;11.506;2023-10-31T12:50:04;13.00;99.90
15690;DHT22;7945;48.816;11.506;2023-10-31T12:52:44;13.00;99.90
15690;DHT22;7945;48.816;11.506;2023-10-31T12:55:14;13.10;99.90
15690;DHT22;7945;48.816;11.506;2023-10-31T12:57:41;13.10;99.90
15690;DHT22;7945;48.816;11.506;2023-10-31T13:00:09;13.10;99.90
15690;DHT22;7945;48.816;11.506;2023-10-31T13:02:39;13.10;99.90
15690;DHT22;7945;48.816;11.506;2023-10-31T13:05:09;13.20;99.90
15690;DHT22;7945;48.816;11.506;2023-10-31T13:07:37;13.20;99.90
15690;DHT22;7945;48.816;11.506;2023-10-31T13:10:04;13.20;99.90
15690;DHT22;7945;48.816;11.506;2023-10-31T13:12:31;13.20;99.90
15690;DHT22;7945;48.816;11.506;2023-10-31T13:14:58;13.30;99.90
15690;DHT22;7945;48.816;11.506;2023-10-31T13:17:26;13.30;99.90
15690;DHT22;7945;48.816;11.506;2023-10-31T13:19:54;13.20;99.90
15690;DHT22;7945;48.816;11.506;2023-10-31T13:22:21;13.20;99.90
15690;DHT22;7945;48.816;11.506;2023-10-31T13:24:47;13.30;99.90
15690;DHT22;7945;48.816;11.506;2023-10-31T13:27:14;15.20;99.90
15690;DHT22;7945;48.816;11.506;2023-10-31T13:29:42;13.30;99.90
15690;DHT22;7945;48.816;11.506;2023-10-31T13:32:08;13.30;99.90
15690;DHT22;7945;48.816;11.506;2023-10-31T13:34:35;13.20;99.90
15690;DHT22;7945;48.816;11.506;2023-10-31T13:37:03;13.20;99.90
15690;DHT22;7945;48.816;11.506;2023-10-31T13:39:30;13.20;99.90
15690;DHT22;7945;48.816;11.506;2023-10-31T13:41:57;13.20;99.90
15690;DHT22;7945;48.816;11.506;2023-10-31T13:44:23;13.20;99.90
15690;DHT22;7945;48.816;11.506;2023-10-31T13:46:50;13.20;99.90
15690;DHT22;7945;48.816;11.506;2023-10-31T13:49:16;13.20;99.90
15690;DHT22;7945;48.816;11.506;2023-10-31T13:51:43;13.20;99.90
15690;DHT22;7945;48.816;11.506;2023-10-31T13:54:11;13.20;99.90
15690;DHT22;7945;48.816;11.506;2023-10-31T13:56:38;13.10;99.90
15690;DHT22;7945;48.816;11.506;2023-10-31T13:59:04;13.10;99.90
15690;DHT22;7945;48.816;11.506;2023-10-31T14:01:31;13.10;99.90
15690;DHT22;7945;48.816;11.506;2023-10-31T14:03:57;13.10;99.90
15690;DHT22;7945;48.816;11.506;2023-10-31T14:06:24;13.10;99.90
15690;DHT22;7945;48.816;11.506;2023-10-31T14:08:55;13.00;99.90
15690;DHT22;7945;48.816;11.506;2023-10-31T14:11:23;13.00;99.90
15690;DHT22;7945;48.816;11.506;2023-10-31T14:13:49;13.00;99.90
15690;DHT22;7945;48.816;11.506;2023-10-31T14:16:17;13.00;99.90
15690;DHT22;7945;48.816;11.506;2023-10-31T14:18:44;13.00;99.90
15690;DHT22;7945;48.816;11.506;2023-10-31T14:21:11;13.10;99.90
15690;DHT22;7945;48.816;11.506;2023-10-31T14:23:38;13.10;99.90
15690;DHT22;7945;48.816;11.506;2023-10-31T14:26:04;13.80;99.90
15690;DHT22;7945;48.816;11.506;2023-10-31T14:28:32;13.10;99.90
15690;DHT22;7945;48.816;11.506;2023-10-31T14:30:59;13.10;99.90
15690;DHT22;7945;48.816;11.506;2023-10-31T14:33:26;13.10;99.90
15690;DHT22;7945;48.816;11.506;2023-10-31T14:35:55;13.20;99.90
15690;DHT22;7945;48.816;11.506;2023-10-31T14:38:21;13.20;99.90
15690;DHT22;7945;48.816;11.506;2023-10-31T14:40:48;13.30;99.90
15690;DHT22;7945;48.816;11.506;2023-10-31T14:43:14;13.30;99.90
15690;DHT22;7945;48.816;11.506;2023-10-31T14:45:45;13.20;99.90
15690;DHT22;7945;48.816;11.506;2023-10-31T14:48:11;13.20;99.90
15690;DHT22;7945;48.816;11.506;2023-10-31T14:50:38;13.20;99.90
15690;DHT22;7945;48.816;11.506;2023-10-31T14:53:05;13.20;99.90
15690;DHT22;7945;48.816;11.506;2023-10-31T14:55:31;13.20;99.90
15690;DHT22;7945;48.816;11.506;2023-10-31T14:57:58;13.20;99.90
15690;DHT22;7945;48.816;11.506;2023-10-31T15:00:25;13.20;99.90
15690;DHT22;7945;48.816;11.506;2023-10-31T15:02:52;13.30;99.90
15690;DHT22;7945;48.816;11.506;2023-10-31T15:05:19;13.20;99.90
15690;DHT22;7945;48.816;11.506;2023-10-31T15:07:46;13.20;99.90
15690;DHT22;7945;48.816;11.506;2023-10-31T15:10:13;13.20;99.90
15690;DHT22;7945;48.816;11.506;2023-10-31T15:12:39;13.10;99.90
15690;DHT22;7945;48.816;11.506;2023-10-31T15:15:07;13.10;99.90
15690;DHT22;7945;48.816;11.506;2023-10-31T15:17:33;13.10;99.90
15690;DHT22;7945;48.816;11.506;2023-10-31T15:20:01;13.10;99.90
15690;DHT22;7945;48.816;11.506;2023-10-31T15:22:29;13.00;99.90
15690;DHT22;7945;48.816;11.506;2023-10-31T15:24:55;13.00;99.90
15690;DHT22;7945;48.816;11.506;2023-10-31T15:27:22;12.90;99.90
15690;DHT22;7945;48.816;11.506;2023-10-31T15:29:48;12.90;99.90
15690;DHT22;7945;48.816;11.506;2023-10-31T15:32:15;12.90;99.90